sensor_id;sensor_type;location;lat;lon;timestamp;temperature;humidity
14252;DHT22;7210;51.502;10.722;2023-05-20T00:01:21;12.80;1.00
14252;DHT22;7210;51.502;10.722;2023-05-20T00:03:49;12.80;1.00
14252;DHT22;7210;51.502;10.722;2023-05-20T00:06:19;12.80;1.00
14252;DHT22;7210;51.502;10.722;2023-05-20T00:08:49;12.80;1.00
14252;DHT22;7210;51.502;10.722;2023-05-20T00:11:16;12.80;1.00
14252;DHT22;7210;51.502;10.722;2023-05-20T00:13:49;12.80;1.00
14252;DHT22;7210;51.502;10.722;2023-05-20T00:16:38;12.80;1.00
14252;DHT22;7210;51.502;10.722;2023-05-20T00:19:07;12.80;1.00
14252;DHT22;7210;51.502;10.722;2023-05-20T00:21:34;12.80;1.00
14252;DHT22;7210;51.502;10.722;2023-05-20T00:24:01;12.80;1.00
14252;DHT22;7210;51.502;10.722;2023-05-20T00:26:28;12.80;1.00
14252;DHT22;7210;51.502;10.722;2023-05-20T00:28:56;12.80;1.00
14252;DHT22;7210;51.502;10.722;2023-05-20T00:31:24;12.80;1.00
14252;DHT22;7210;51.502;10.722;2023-05-20T00:33:52;12.80;1.00
14252;DHT22;7210;51.502;10.722;2023-05-20T00:36:19;12.80;1.00
14252;DHT22;7210;51.502;10.722;2023-05-20T00:39:12;12.80;1.00
14252;DHT22;7210;51.502;10.722;2023-05-20T00:41:39;12.80;1.00
14252;DHT22;7210;51.502;10.722;2023-05-20T00:44:06;12.80;1.00
14252;DHT22;7210;51.502;10.722;2023-05-20T00:46:34;12.80;1.00
14252;DHT22;7210;51.502;10.722;2023-05-20T00:49:03;12.80;1.00
14252;DHT22;7210;51.502;10.722;2023-05-20T00:51:37;12.80;1.00
14252;DHT22;7210;51.502;10.722;2023-05-20T00:54:04;12.80;1.00
14252;DHT22;7210;51.502;10.722;2023-05-20T00:56:49;12.80;1.00
14252;DHT22;7210;51.502;10.722;2023-05-20T00:59:17;12.80;1.00
14252;DHT22;7210;51.502;10.722;2023-05-20T01:01:44;12.80;1.00
14252;DHT22;7210;51.502;10.722;2023-05-20T01:04:13;12.80;1.00
14252;DHT22;7210;51.502;10.722;2023-05-20T01:06:43;12.80;1.00
14252;DHT22;7210;51.502;10.722;2023-05-20T01:09:12;12.80;1.00
14252;DHT22;7210;51.502;10.722;2023-05-20T01:11:43;12.70;1.00
14252;DHT22;7210;51.502;10.722;2023-05-20T01:14:15;12.70;1.00
14252;DHT22;7210;51.502;10.722;2023-05-20T01:16:50;12.80;1.00
14252;DHT22;7210;51.502;10.722;2023-05-20T01:19:36;12.70;1.00
14252;DHT22;7210;51.502;10.722;2023-05-20T01:22:07;12.80;1.00
14252;DHT22;7210;51.502;10.722;2023-05-20T01:24:45;12.70;1.00
14252;DHT22;7210;51.502;10.722;2023-05-20T01:27:20;12.70;1.00
14252;DHT22;7210;51.502;10.722;2023-05-20T01:29:49;12.70;1.00
14252;DHT22;7210;51.502;10.722;2023-05-20T01:32:21;12.70;1.00
14252;DHT22;7210;51.502;10.722;2023-05-20T01:34:52;12.70;1.00
14252;DHT22;7210;51.502;10.722;2023-05-20T01:37:21;12.60;1.00
14252;DHT22;7210;51.502;10.722;2023-05-20T01:39:52;12.60;1.00
14252;DHT22;7210;51.502;10.722;2023-05-20T01:42:21;12.70;1.00
14252;DHT22;7210;51.502;10.722;2023-05-20T01:45:07;12.70;1.00
14252;DHT22;7210;51.502;10.722;2023-05-20T01:47:49;12.60;1.00
14252;DHT22;7210;51.502;10.722;2023-05-20T01:50:16;12.60;1.00
14252;DHT22;7210;51.502;10.722;2023-05-20T01:52:44;12.60;1.00
14252;DHT22;7210;51.502;10.722;2023-05-20T01:55:14;12.60;1.00
14252;DHT22;7210;51.502;10.722;2023-05-20T01:57:41;12.60;1.00
14252;DHT22;7210;51.502;10.722;2023-05-20T02:00:13;12.60;1.00
14252;DHT22;7210;51.502;10.722;2023-05-20T02:02:40;12.60;1.00
14252;DHT22;7210;51.502;10.722;2023-05-20T02:05:10;12.50;1.00
14252;DHT22;7210;51.502;10.722;2023-05-20T02:07:38;12.50;1.00
14252;DHT22;7210;51.502;10.722;2023-05-20T02:12:57;12.50;1.00
14252;DHT22;7210;51.502;10.722;2023-05-20T02:15:25;12.50;1.00
14252;DHT22;7210;51.502;10.722;2023-05-20T02:17:52;12.50;1.00
14252;DHT22;7210;51.502;10.722;2023-05-20T02:23:10;12.50;1.00
14252;DHT22;7210;51.502;10.722;2023-05-20T02:25:37;12.40;1.00
14252;DHT22;7210;51.502;10.722;2023-05-20T02:28:05;12.40;1.00
14252;DHT22;7210;51.502;10.722;2023-05-20T02:30:35;12.40;1.00
14252;DHT22;7210;51.502;10.722;2023-05-20T02:33:02;12.40;1.00
14252;DHT22;7210;51.502;10.722;2023-05-20T02:35:30;12.50;1.00
14252;DHT22;7210;51.502;10.722;2023-05-20T02:37:57;12.40;1.00
14252;DHT22;7210;51.502;10.722;2023-05-20T02:40:24;12.40;1.00
14252;DHT22;7210;51.502;10.722;2023-05-20T02:42:53;12.30;1.00
14252;DHT22;7210;51.502;10.722;2023-05-20T02:45:21;12.40;1.00
14252;DHT22;7210;51.502;10.722;2023-05-20T02:47:48;12.40;1.00
14252;DHT22;7210;51.502;10.722;2023-05-20T02:50:16;12.40;1.00
14252;DHT22;7210;51.502;10.722;2023-05-20T02:52:44;12.40;1.00
14252;DHT22;7210;51.502;10.722;2023-05-20T02:55:12;12.40;1.00
14252;DHT22;7210;51.502;10.722;2023-05-20T02:57:40;12.40;1.00
14252;DHT22;7210;51.502;10.722;2023-05-20T03:00:09;12.40;1.00
14252;DHT22;7210;51.502;10.722;2023-05-20T03:02:39;12.40;1.00
14252;DHT22;7210;51.502;10.722;2023-05-20T03:05:07;12.40;1.00
14252;DHT22;7210;51.502;10.722;2023-05-20T03:07:35;12.40;1.00
14252;DHT22;7210;51.502;10.722;2023-05-20T03:10:06;12.40;1.00
14252;DHT22;7210;51.502;10.722;2023-05-20T03:12:37;12.40;1.00
14252;DHT22;7210;51.502;10.722;2023-05-20T03:15:06;12.30;1.00
14252;DHT22;7210;51.502;10.722;2023-05-20T03:17:35;12.40;1.00
14252;DHT22;7210;51.502;10.722;2023-05-20T03:20:05;12.40;1.00
14252;DHT22;7210;51.502;10.722;2023-05-20T03:22:33;12.40;1.00
14252;DHT22;7210;51.502;10.722;2023-05-20T03:25:00;12.40;1.00
14252;DHT22;7210;51.502;10.722;2023-05-20T03:27:32;12.40;1.00
14252;DHT22;7210;51.502;10.722;2023-05-20T03:30:01;12.30;1.00
14252;DHT22;7210;51.502;10.722;2023-05-20T03:32:32;12.30;1.00
14252;DHT22;7210;51.502;10.722;2023-05-20T03:34:59;12.30;1.00
14252;DHT22;7210;51.502;10.722;2023-05-20T03:37:28;12.30;1.00
14252;DHT22;7210;51.502;10.722;2023-05-20T03:39:56;12.30;1.00
14252;DHT22;7210;51.502;10.722;2023-05-20T03:42:23;12.30;1.00
14252;DHT22;7210;51.502;10.722;2023-05-20T03:44:51;12.30;1.00
14252;DHT22;7210;51.502;10.722;2023-05-20T03:47:20;12.30;1.00
14252;DHT22;7210;51.502;10.722;2023-05-20T03:49:48;12.40;1.00
14252;DHT22;7210;51.502;10.722;2023-05-20T03:52:15;12.40;1.00
14252;DHT22;7210;51.502;10.722;2023-05-20T03:54:43;12.40;1.00
14252;DHT22;7210;51.502;10.722;2023-05-20T03:57:14;12.40;1.00
14252;DHT22;7210;51.502;10.722;2023-05-20T03:59:41;12.40;1.00
14252;DHT22;7210;51.502;10.722;2023-05-20T04:02:09;12.40;1.00
14252;DHT22;7210;51.502;10.722;2023-05-20T04:04:38;12.40;1.00
14252;DHT22;7210;51.502;10.722;2023-05-20T04:07:07;12.40;1.00
14252;DHT22;7210;51.502;10.722;2023-05-20T04:09:36;12.40;1.00
14252;DHT22;7210;51.502;10.722;2023-05-20T04:12:05;12.30;1.00
14252;DHT22;7210;51.502;10.722;2023-05-20T04:14:33;12.40;1.00
14252;DHT22;7210;51.502;10.722;2023-05-20T04:17:02;12.40;1.00
14252;DHT22;7210;51.502;10.722;2023-05-20T04:19:31;12.40;1.00
14252;DHT22;7210;51.502;10.722;2023-05-20T04:21:59;12.40;1.00
14252;DHT22;7210;51.502;10.722;2023-05-20T04:24:26;12.50;1.00
14252;DHT22;7210;51.502;10.722;2023-05-20T04:26:54;12.50;1.00
14252;DHT22;7210;51.502;10.722;2023-05-20T04:29:22;12.50;1.00
14252;DHT22;7210;51.502;10.722;2023-05-20T04:31:49;12.60;1.00
14252;DHT22;7210;51.502;10.722;2023-05-20T04:34:17;12.60;1.00
14252;DHT22;7210;51.502;10.722;2023-05-20T04:36:51;12.70;1.00
14252;DHT22;7210;51.502;10.722;2023-05-20T04:39:18;12.80;1.00
14252;DHT22;7210;51.502;10.722;2023-05-20T04:41:50;12.90;1.00
14252;DHT22;7210;51.502;10.722;2023-05-20T04:44:19;13.00;1.00
14252;DHT22;7210;51.502;10.722;2023-05-20T04:46:48;13.10;1.00
14252;DHT22;7210;51.502;10.722;2023-05-20T04:49:16;13.10;1.00
14252;DHT22;7210;51.502;10.722;2023-05-20T04:51:43;13.10;1.00
14252;DHT22;7210;51.502;10.722;2023-05-20T04:54:12;13.20;1.00
14252;DHT22;7210;51.502;10.722;2023-05-20T04:56:42;13.20;1.00
14252;DHT22;7210;51.502;10.722;2023-05-20T04:59:10;13.20;1.00
14252;DHT22;7210;51.502;10.722;2023-05-20T05:01:44;13.30;1.00
14252;DHT22;7210;51.502;10.722;2023-05-20T05:04:13;13.40;1.00
14252;DHT22;7210;51.502;10.722;2023-05-20T05:06:40;13.40;1.00
14252;DHT22;7210;51.502;10.722;2023-05-20T05:09:08;13.40;1.00
14252;DHT22;7210;51.502;10.722;2023-05-20T05:11:38;13.40;1.00
14252;DHT22;7210;51.502;10.722;2023-05-20T05:14:05;13.40;1.00
14252;DHT22;7210;51.502;10.722;2023-05-20T05:16:35;13.30;1.00
14252;DHT22;7210;51.502;10.722;2023-05-20T05:19:02;13.30;1.00
14252;DHT22;7210;51.502;10.722;2023-05-20T05:21:34;13.30;1.00
14252;DHT22;7210;51.502;10.722;2023-05-20T05:24:08;13.30;1.00
14252;DHT22;7210;51.502;10.722;2023-05-20T05:26:35;13.30;1.00
14252;DHT22;7210;51.502;10.722;2023-05-20T05:29:02;13.40;1.00
14252;DHT22;7210;51.502;10.722;2023-05-20T05:31:30;13.40;1.00
14252;DHT22;7210;51.502;10.722;2023-05-20T05:33:57;13.50;1.00
14252;DHT22;7210;51.502;10.722;2023-05-20T05:36:24;13.50;1.00
14252;DHT22;7210;51.502;10.722;2023-05-20T05:38:53;13.50;1.00
14252;DHT22;7210;51.502;10.722;2023-05-20T05:41:21;13.50;1.00
14252;DHT22;7210;51.502;10.722;2023-05-20T05:43:49;13.40;1.00
14252;DHT22;7210;51.502;10.722;2023-05-20T05:46:16;13.40;1.00
14252;DHT22;7210;51.502;10.722;2023-05-20T05:48:43;13.30;1.00
14252;DHT22;7210;51.502;10.722;2023-05-20T05:51:13;13.30;1.00
14252;DHT22;7210;51.502;10.722;2023-05-20T05:53:41;13.30;1.00
14252;DHT22;7210;51.502;10.722;2023-05-20T05:56:10;13.20;1.00
14252;DHT22;7210;51.502;10.722;2023-05-20T05:58:37;13.20;1.00
14252;DHT22;7210;51.502;10.722;2023-05-20T06:01:08;13.10;1.00
14252;DHT22;7210;51.502;10.722;2023-05-20T06:03:38;13.10;1.00
14252;DHT22;7210;51.502;10.722;2023-05-20T06:06:08;13.10;1.00
14252;DHT22;7210;51.502;10.722;2023-05-20T06:08:38;13.20;1.00
14252;DHT22;7210;51.502;10.722;2023-05-20T06:11:06;13.20;1.00
14252;DHT22;7210;51.502;10.722;2023-05-20T06:13:36;13.30;1.00
14252;DHT22;7210;51.502;10.722;2023-05-20T06:16:04;13.20;1.00
14252;DHT22;7210;51.502;10.722;2023-05-20T06:18:31;13.20;1.00
14252;DHT22;7210;51.502;10.722;2023-05-20T06:21:03;13.20;1.00
14252;DHT22;7210;51.502;10.722;2023-05-20T06:23:30;13.20;1.00
14252;DHT22;7210;51.502;10.722;2023-05-20T06:26:00;13.30;1.00
14252;DHT22;7210;51.502;10.722;2023-05-20T06:28:29;13.30;1.00
14252;DHT22;7210;51.502;10.722;2023-05-20T06:30:58;13.30;1.00
14252;DHT22;7210;51.502;10.722;2023-05-20T06:33:27;13.40;1.00
14252;DHT22;7210;51.502;10.722;2023-05-20T06:36:02;13.40;1.00
14252;DHT22;7210;51.502;10.722;2023-05-20T06:38:30;13.60;1.00
14252;DHT22;7210;51.502;10.722;2023-05-20T06:40:57;13.60;1.00
14252;DHT22;7210;51.502;10.722;2023-05-20T06:43:26;13.60;1.00
14252;DHT22;7210;51.502;10.722;2023-05-20T06:46:04;13.60;1.00
14252;DHT22;7210;51.502;10.722;2023-05-20T06:48:46;13.70;1.00
14252;DHT22;7210;51.502;10.722;2023-05-20T06:51:13;13.60;1.00
14252;DHT22;7210;51.502;10.722;2023-05-20T06:53:40;13.60;1.00
14252;DHT22;7210;51.502;10.722;2023-05-20T06:56:07;13.60;1.00
14252;DHT22;7210;51.502;10.722;2023-05-20T06:58:34;13.60;1.00
14252;DHT22;7210;51.502;10.722;2023-05-20T07:01:01;13.60;1.00
14252;DHT22;7210;51.502;10.722;2023-05-20T07:03:30;13.50;1.00
14252;DHT22;7210;51.502;10.722;2023-05-20T07:05:58;13.60;1.00
14252;DHT22;7210;51.502;10.722;2023-05-20T07:08:25;13.60;1.00
14252;DHT22;7210;51.502;10.722;2023-05-20T07:10:54;13.70;1.00
14252;DHT22;7210;51.502;10.722;2023-05-20T07:13:26;13.70;1.00
14252;DHT22;7210;51.502;10.722;2023-05-20T07:15:53;13.80;1.00
14252;DHT22;7210;51.502;10.722;2023-05-20T07:18:20;13.90;1.00
14252;DHT22;7210;51.502;10.722;2023-05-20T07:20:53;14.10;1.00
14252;DHT22;7210;51.502;10.722;2023-05-20T07:23:38;14.30;1.00
14252;DHT22;7210;51.502;10.722;2023-05-20T07:26:05;14.60;1.00
14252;DHT22;7210;51.502;10.722;2023-05-20T07:28:33;14.80;1.00
14252;DHT22;7210;51.502;10.722;2023-05-20T07:31:01;14.90;1.00
14252;DHT22;7210;51.502;10.722;2023-05-20T07:33:31;14.80;1.00
14252;DHT22;7210;51.502;10.722;2023-05-20T07:36:04;14.80;1.00
14252;DHT22;7210;51.502;10.722;2023-05-20T07:38:31;14.60;1.00
14252;DHT22;7210;51.502;10.722;2023-05-20T07:41:02;14.70;1.00
14252;DHT22;7210;51.502;10.722;2023-05-20T07:43:30;14.60;1.00
14252;DHT22;7210;51.502;10.722;2023-05-20T07:45:57;14.60;1.00
14252;DHT22;7210;51.502;10.722;2023-05-20T07:48:25;14.60;1.00
14252;DHT22;7210;51.502;10.722;2023-05-20T07:50:52;14.60;1.00
14252;DHT22;7210;51.502;10.722;2023-05-20T07:53:23;14.60;1.00
14252;DHT22;7210;51.502;10.722;2023-05-20T07:55:56;14.70;1.00
14252;DHT22;7210;51.502;10.722;2023-05-20T07:58:26;14.80;1.00
14252;DHT22;7210;51.502;10.722;2023-05-20T08:00:54;14.70;1.00
14252;DHT22;7210;51.502;10.722;2023-05-20T08:03:21;14.80;1.00
14252;DHT22;7210;51.502;10.722;2023-05-20T08:06:08;14.90;1.00
14252;DHT22;7210;51.502;10.722;2023-05-20T08:08:37;15.00;1.00
14252;DHT22;7210;51.502;10.722;2023-05-20T08:11:11;15.20;1.00
14252;DHT22;7210;51.502;10.722;2023-05-20T08:13:39;15.20;1.00
14252;DHT22;7210;51.502;10.722;2023-05-20T08:16:08;15.10;1.00
14252;DHT22;7210;51.502;10.722;2023-05-20T08:18:35;15.10;1.00
14252;DHT22;7210;51.502;10.722;2023-05-20T08:21:04;15.10;1.00
14252;DHT22;7210;51.502;10.722;2023-05-20T08:23:32;15.10;1.00
14252;DHT22;7210;51.502;10.722;2023-05-20T08:26:01;15.20;1.00
14252;DHT22;7210;51.502;10.722;2023-05-20T08:28:30;15.10;1.00
14252;DHT22;7210;51.502;10.722;2023-05-20T08:31:00;15.20;1.00
14252;DHT22;7210;51.502;10.722;2023-05-20T08:33:29;15.20;1.00
14252;DHT22;7210;51.502;10.722;2023-05-20T08:35:57;15.10;1.00
14252;DHT22;7210;51.502;10.722;2023-05-20T08:38:24;15.20;1.00
14252;DHT22;7210;51.502;10.722;2023-05-20T08:40:52;15.10;1.00
14252;DHT22;7210;51.502;10.722;2023-05-20T08:43:22;15.10;1.00
14252;DHT22;7210;51.502;10.722;2023-05-20T08:45:50;15.00;1.00
14252;DHT22;7210;51.502;10.722;2023-05-20T08:48:19;14.90;1.00
14252;DHT22;7210;51.502;10.722;2023-05-20T08:50:51;14.80;1.00
14252;DHT22;7210;51.502;10.722;2023-05-20T08:53:19;14.80;1.00
14252;DHT22;7210;51.502;10.722;2023-05-20T08:55:52;14.70;1.00
14252;DHT22;7210;51.502;10.722;2023-05-20T08:58:23;14.80;1.00
14252;DHT22;7210;51.502;10.722;2023-05-20T09:00:52;14.90;1.00
14252;DHT22;7210;51.502;10.722;2023-05-20T09:03:19;15.00;1.00
14252;DHT22;7210;51.502;10.722;2023-05-20T09:05:48;15.10;1.00
14252;DHT22;7210;51.502;10.722;2023-05-20T09:08:15;15.30;1.00
14252;DHT22;7210;51.502;10.722;2023-05-20T09:10:43;15.30;1.00
14252;DHT22;7210;51.502;10.722;2023-05-20T09:13:10;15.30;1.00
14252;DHT22;7210;51.502;10.722;2023-05-20T09:15:39;15.20;1.00
14252;DHT22;7210;51.502;10.722;2023-05-20T09:18:07;15.20;1.00
14252;DHT22;7210;51.502;10.722;2023-05-20T09:20:36;15.30;1.00
14252;DHT22;7210;51.502;10.722;2023-05-20T09:23:09;15.30;1.00
14252;DHT22;7210;51.502;10.722;2023-05-20T09:25:36;15.40;1.00
14252;DHT22;7210;51.502;10.722;2023-05-20T09:28:08;15.40;1.00
14252;DHT22;7210;51.502;10.722;2023-05-20T09:30:36;15.40;1.00
14252;DHT22;7210;51.502;10.722;2023-05-20T09:33:05;15.40;1.00
14252;DHT22;7210;51.502;10.722;2023-05-20T09:35:34;15.30;1.00
14252;DHT22;7210;51.502;10.722;2023-05-20T09:38:04;15.30;1.00
14252;DHT22;7210;51.502;10.722;2023-05-20T09:40:38;15.30;1.00
14252;DHT22;7210;51.502;10.722;2023-05-20T09:43:10;15.30;1.00
14252;DHT22;7210;51.502;10.722;2023-05-20T09:45:38;15.30;1.00
14252;DHT22;7210;51.502;10.722;2023-05-20T09:48:08;15.40;1.00
14252;DHT22;7210;51.502;10.722;2023-05-20T09:50:38;15.40;1.00
14252;DHT22;7210;51.502;10.722;2023-05-20T09:53:08;15.40;1.00
14252;DHT22;7210;51.502;10.722;2023-05-20T09:55:38;15.40;1.00
14252;DHT22;7210;51.502;10.722;2023-05-20T09:58:05;15.40;1.00
14252;DHT22;7210;51.502;10.722;2023-05-20T10:00:36;15.40;1.00
14252;DHT22;7210;51.502;10.722;2023-05-20T10:03:04;15.30;1.00
14252;DHT22;7210;51.502;10.722;2023-05-20T10:05:39;15.40;1.00
14252;DHT22;7210;51.502;10.722;2023-05-20T10:08:24;15.30;1.00
14252;DHT22;7210;51.502;10.722;2023-05-20T10:11:10;15.40;1.00
14252;DHT22;7210;51.502;10.722;2023-05-20T10:14:10;15.40;1.00
14252;DHT22;7210;51.502;10.722;2023-05-20T10:16:52;15.40;1.00
14252;DHT22;7210;51.502;10.722;2023-05-20T10:19:27;15.40;1.00
14252;DHT22;7210;51.502;10.722;2023-05-20T10:22:00;15.60;1.00
14252;DHT22;7210;51.502;10.722;2023-05-20T10:24:30;15.70;1.00
14252;DHT22;7210;51.502;10.722;2023-05-20T10:27:00;15.90;1.00
14252;DHT22;7210;51.502;10.722;2023-05-20T10:29:29;16.10;1.00
14252;DHT22;7210;51.502;10.722;2023-05-20T10:32:02;16.30;1.00
14252;DHT22;7210;51.502;10.722;2023-05-20T10:34:44;16.40;1.00
14252;DHT22;7210;51.502;10.722;2023-05-20T10:37:22;16.50;1.00
14252;DHT22;7210;51.502;10.722;2023-05-20T10:39:51;16.50;1.00
14252;DHT22;7210;51.502;10.722;2023-05-20T10:42:27;16.70;1.00
14252;DHT22;7210;51.502;10.722;2023-05-20T10:44:55;16.90;1.00
14252;DHT22;7210;51.502;10.722;2023-05-20T10:47:22;17.10;1.00
14252;DHT22;7210;51.502;10.722;2023-05-20T10:49:49;17.20;1.00
14252;DHT22;7210;51.502;10.722;2023-05-20T10:52:17;17.30;1.00
14252;DHT22;7210;51.502;10.722;2023-05-20T10:54:47;17.30;1.00
14252;DHT22;7210;51.502;10.722;2023-05-20T10:57:22;17.40;1.00
14252;DHT22;7210;51.502;10.722;2023-05-20T10:59:49;17.60;1.00
14252;DHT22;7210;51.502;10.722;2023-05-20T11:02:18;17.70;1.00
14252;DHT22;7210;51.502;10.722;2023-05-20T11:04:51;17.90;1.00
14252;DHT22;7210;51.502;10.722;2023-05-20T11:07:26;18.20;1.00
14252;DHT22;7210;51.502;10.722;2023-05-20T11:09:55;18.20;1.00
14252;DHT22;7210;51.502;10.722;2023-05-20T11:12:23;18.30;1.00
14252;DHT22;7210;51.502;10.722;2023-05-20T11:14:56;18.40;1.00
14252;DHT22;7210;51.502;10.722;2023-05-20T11:17:23;18.80;1.00
14252;DHT22;7210;51.502;10.722;2023-05-20T11:19:50;18.90;1.00
14252;DHT22;7210;51.502;10.722;2023-05-20T11:22:17;18.90;1.00
14252;DHT22;7210;51.502;10.722;2023-05-20T11:24:45;18.80;1.00
14252;DHT22;7210;51.502;10.722;2023-05-20T11:27:14;18.60;1.00
14252;DHT22;7210;51.502;10.722;2023-05-20T11:29:50;18.80;1.00
14252;DHT22;7210;51.502;10.722;2023-05-20T11:32:18;18.80;1.00
14252;DHT22;7210;51.502;10.722;2023-05-20T11:34:50;18.80;1.00
14252;DHT22;7210;51.502;10.722;2023-05-20T11:37:18;19.00;1.00
14252;DHT22;7210;51.502;10.722;2023-05-20T11:40:02;19.00;1.00
14252;DHT22;7210;51.502;10.722;2023-05-20T11:42:35;18.80;1.00
14252;DHT22;7210;51.502;10.722;2023-05-20T11:45:03;18.60;1.00
14252;DHT22;7210;51.502;10.722;2023-05-20T11:47:31;18.50;1.00
14252;DHT22;7210;51.502;10.722;2023-05-20T11:49:58;18.40;1.00
14252;DHT22;7210;51.502;10.722;2023-05-20T11:52:27;18.20;1.00
14252;DHT22;7210;51.502;10.722;2023-05-20T11:54:55;18.30;1.00
14252;DHT22;7210;51.502;10.722;2023-05-20T11:57:22;18.40;1.00
14252;DHT22;7210;51.502;10.722;2023-05-20T11:59:51;18.40;1.00
14252;DHT22;7210;51.502;10.722;2023-05-20T12:02:18;18.40;1.00
14252;DHT22;7210;51.502;10.722;2023-05-20T12:04:45;18.30;1.00
14252;DHT22;7210;51.502;10.722;2023-05-20T12:07:13;18.30;1.00
14252;DHT22;7210;51.502;10.722;2023-05-20T12:09:40;18.20;1.00
14252;DHT22;7210;51.502;10.722;2023-05-20T12:12:07;18.20;1.00
14252;DHT22;7210;51.502;10.722;2023-05-20T12:14:35;18.10;1.00
14252;DHT22;7210;51.502;10.722;2023-05-20T12:17:04;18.20;1.00
14252;DHT22;7210;51.502;10.722;2023-05-20T12:19:31;18.10;1.00
14252;DHT22;7210;51.502;10.722;2023-05-20T12:22:02;18.10;1.00
14252;DHT22;7210;51.502;10.722;2023-05-20T12:24:29;18.10;1.00
14252;DHT22;7210;51.502;10.722;2023-05-20T12:26:56;18.00;1.00
14252;DHT22;7210;51.502;10.722;2023-05-20T12:29:23;17.80;1.00
14252;DHT22;7210;51.502;10.722;2023-05-20T12:31:51;18.00;1.00
14252;DHT22;7210;51.502;10.722;2023-05-20T12:34:19;18.00;1.00
14252;DHT22;7210;51.502;10.722;2023-05-20T12:36:46;18.00;1.00
14252;DHT22;7210;51.502;10.722;2023-05-20T12:39:14;18.00;1.00
14252;DHT22;7210;51.502;10.722;2023-05-20T12:41:42;17.90;1.00
14252;DHT22;7210;51.502;10.722;2023-05-20T12:44:09;18.00;1.00
14252;DHT22;7210;51.502;10.722;2023-05-20T12:46:36;18.10;1.00
14252;DHT22;7210;51.502;10.722;2023-05-20T12:49:04;18.10;1.00
14252;DHT22;7210;51.502;10.722;2023-05-20T12:51:32;18.20;1.00
14252;DHT22;7210;51.502;10.722;2023-05-20T12:53:59;18.10;1.00
14252;DHT22;7210;51.502;10.722;2023-05-20T12:56:27;18.00;1.00
14252;DHT22;7210;51.502;10.722;2023-05-20T12:58:55;18.00;1.00
14252;DHT22;7210;51.502;10.722;2023-05-20T13:01:22;17.80;1.00
14252;DHT22;7210;51.502;10.722;2023-05-20T13:03:49;17.70;1.00
14252;DHT22;7210;51.502;10.722;2023-05-20T13:06:18;17.60;1.00
14252;DHT22;7210;51.502;10.722;2023-05-20T13:08:46;17.50;1.00
14252;DHT22;7210;51.502;10.722;2023-05-20T13:11:13;17.40;1.00
14252;DHT22;7210;51.502;10.722;2023-05-20T13:13:40;17.50;1.00
14252;DHT22;7210;51.502;10.722;2023-05-20T13:16:08;17.50;1.00
14252;DHT22;7210;51.502;10.722;2023-05-20T13:18:36;17.50;1.00
14252;DHT22;7210;51.502;10.722;2023-05-20T13:21:03;17.50;1.00
14252;DHT22;7210;51.502;10.722;2023-05-20T13:23:30;17.50;1.00
14252;DHT22;7210;51.502;10.722;2023-05-20T13:25:59;17.50;1.00
14252;DHT22;7210;51.502;10.722;2023-05-20T13:28:26;17.50;1.00
14252;DHT22;7210;51.502;10.722;2023-05-20T13:30:53;17.30;1.00
14252;DHT22;7210;51.502;10.722;2023-05-20T13:33:21;17.40;1.00
14252;DHT22;7210;51.502;10.722;2023-05-20T13:35:48;17.50;1.00
14252;DHT22;7210;51.502;10.722;2023-05-20T13:38:16;17.60;1.00
14252;DHT22;7210;51.502;10.722;2023-05-20T13:40:43;17.60;1.00
14252;DHT22;7210;51.502;10.722;2023-05-20T13:43:12;17.60;1.00
14252;DHT22;7210;51.502;10.722;2023-05-20T13:45:39;17.70;1.00
14252;DHT22;7210;51.502;10.722;2023-05-20T13:48:06;17.70;1.00
14252;DHT22;7210;51.502;10.722;2023-05-20T13:50:33;17.90;1.00
14252;DHT22;7210;51.502;10.722;2023-05-20T13:53:02;18.00;1.00
14252;DHT22;7210;51.502;10.722;2023-05-20T13:55:32;18.00;1.00
14252;DHT22;7210;51.502;10.722;2023-05-20T13:57:59;18.10;1.00
14252;DHT22;7210;51.502;10.722;2023-05-20T14:00:34;18.20;1.00
14252;DHT22;7210;51.502;10.722;2023-05-20T14:03:01;18.10;1.00
14252;DHT22;7210;51.502;10.722;2023-05-20T14:05:32;18.10;1.00
14252;DHT22;7210;51.502;10.722;2023-05-20T14:08:00;18.10;1.00
14252;DHT22;7210;51.502;10.722;2023-05-20T14:10:27;18.10;1.00
14252;DHT22;7210;51.502;10.722;2023-05-20T14:12:56;18.10;1.00
14252;DHT22;7210;51.502;10.722;2023-05-20T14:15:26;18.30;1.00
14252;DHT22;7210;51.502;10.722;2023-05-20T14:17:56;18.50;1.00
14252;DHT22;7210;51.502;10.722;2023-05-20T14:20:24;18.80;1.00
14252;DHT22;7210;51.502;10.722;2023-05-20T14:22:51;18.80;1.00
14252;DHT22;7210;51.502;10.722;2023-05-20T14:25:19;18.90;1.00
14252;DHT22;7210;51.502;10.722;2023-05-20T14:27:46;19.00;1.00
14252;DHT22;7210;51.502;10.722;2023-05-20T14:30:13;19.10;1.00
14252;DHT22;7210;51.502;10.722;2023-05-20T14:32:40;19.00;1.00
14252;DHT22;7210;51.502;10.722;2023-05-20T14:35:09;18.90;1.00
14252;DHT22;7210;51.502;10.722;2023-05-20T14:37:36;18.90;1.00
14252;DHT22;7210;51.502;10.722;2023-05-20T14:40:04;19.00;1.00
14252;DHT22;7210;51.502;10.722;2023-05-20T14:42:32;19.00;1.00
14252;DHT22;7210;51.502;10.722;2023-05-20T14:45:00;19.10;1.00
14252;DHT22;7210;51.502;10.722;2023-05-20T14:47:32;19.10;1.00
14252;DHT22;7210;51.502;10.722;2023-05-20T14:49:59;19.20;1.00
14252;DHT22;7210;51.502;10.722;2023-05-20T14:52:28;19.40;1.00
14252;DHT22;7210;51.502;10.722;2023-05-20T14:54:55;19.50;1.00
14252;DHT22;7210;51.502;10.722;2023-05-20T14:57:22;19.50;1.00
14252;DHT22;7210;51.502;10.722;2023-05-20T14:59:49;19.60;1.00
14252;DHT22;7210;51.502;10.722;2023-05-20T15:02:17;19.70;1.00
14252;DHT22;7210;51.502;10.722;2023-05-20T15:04:45;19.80;1.00
14252;DHT22;7210;51.502;10.722;2023-05-20T15:07:13;20.00;1.00
14252;DHT22;7210;51.502;10.722;2023-05-20T15:09:42;20.20;1.00
14252;DHT22;7210;51.502;10.722;2023-05-20T15:12:10;20.30;1.00
14252;DHT22;7210;51.502;10.722;2023-05-20T15:14:37;20.20;1.00
14252;DHT22;7210;51.502;10.722;2023-05-20T15:17:04;20.10;1.00
14252;DHT22;7210;51.502;10.722;2023-05-20T15:19:44;20.10;1.00
14252;DHT22;7210;51.502;10.722;2023-05-20T15:22:11;20.10;1.00
14252;DHT22;7210;51.502;10.722;2023-05-20T15:24:38;20.10;1.00
14252;DHT22;7210;51.502;10.722;2023-05-20T15:27:07;20.00;1.00
14252;DHT22;7210;51.502;10.722;2023-05-20T15:29:34;20.00;1.00
14252;DHT22;7210;51.502;10.722;2023-05-20T15:32:01;20.00;1.00
14252;DHT22;7210;51.502;10.722;2023-05-20T15:34:28;19.90;1.00
14252;DHT22;7210;51.502;10.722;2023-05-20T15:36:56;19.90;1.00
14252;DHT22;7210;51.502;10.722;2023-05-20T15:39:23;20.00;1.00
14252;DHT22;7210;51.502;10.722;2023-05-20T15:41:50;20.00;1.00
14252;DHT22;7210;51.502;10.722;2023-05-20T15:44:19;20.10;1.00
14252;DHT22;7210;51.502;10.722;2023-05-20T15:46:46;20.00;1.00
14252;DHT22;7210;51.502;10.722;2023-05-20T15:49:14;20.10;1.00
14252;DHT22;7210;51.502;10.722;2023-05-20T15:51:41;20.10;1.00
14252;DHT22;7210;51.502;10.722;2023-05-20T15:54:08;20.00;1.00
14252;DHT22;7210;51.502;10.722;2023-05-20T15:56:35;20.20;1.00
14252;DHT22;7210;51.502;10.722;2023-05-20T15:59:02;20.40;1.00
14252;DHT22;7210;51.502;10.722;2023-05-20T16:01:33;20.60;1.00
14252;DHT22;7210;51.502;10.722;2023-05-20T16:04:00;20.60;1.00